Cottam, Canada
Current Conditions -  °F | °C
As of 1:00 PM on Thursday 23 Oct 2014 (Local Time) from CYQG Reporting Station
Few Clouds Few Clouds  
Wind Chill: 54°   Ceiling: Unl
Heat Index: 54°   Visibility: 15mi
Dew Point: 43°   Wind: 5mph
Humidity: 67%   Direction: 310°NW
Pressure: 30.21"   Gusts: NA
Location:  42.13°N, 82.75°W
Report Text: CYQG 231700Z 31004KT 250V010 15SM FEW020 FEW280 12/06 A3021 RMK CF1CI2 CF TR SLP234
Loading
Personal Weather Stations






























Interactive Weather Map
Tropical Storm Tracking
New forecast layout! Learn more

10-Day Weather Forecast

Advertisements
Track Severe Weather on mobile